sensor_id;sensor_type;location;lat;lon;timestamp;temperature;humidity
45096;DHT22;30858;51.108;8.068;2022-12-26T00:01:47;11.20;99.90
45096;DHT22;30858;51.108;8.068;2022-12-26T00:04:13;11.20;99.90
45096;DHT22;30858;51.108;8.068;2022-12-26T00:06:39;11.10;99.90
45096;DHT22;30858;51.108;8.068;2022-12-26T00:09:06;11.10;99.90
45096;DHT22;30858;51.108;8.068;2022-12-26T00:11:32;11.10;99.90
45096;DHT22;30858;51.108;8.068;2022-12-26T00:14:01;11.00;99.90
45096;DHT22;30858;51.108;8.068;2022-12-26T00:16:27;10.90;99.90
45096;DHT22;30858;51.108;8.068;2022-12-26T00:18:53;10.90;99.90
45096;DHT22;30858;51.108;8.068;2022-12-26T00:21:19;10.80;99.90
45096;DHT22;30858;51.108;8.068;2022-12-26T00:23:46;10.80;99.90
45096;DHT22;30858;51.108;8.068;2022-12-26T00:26:17;10.60;99.90
45096;DHT22;30858;51.108;8.068;2022-12-26T00:28:43;10.60;99.90
45096;DHT22;30858;51.108;8.068;2022-12-26T00:31:17;10.60;99.90
45096;DHT22;30858;51.108;8.068;2022-12-26T00:33:44;10.60;99.90
45096;DHT22;30858;51.108;8.068;2022-12-26T00:36:15;10.60;99.90
45096;DHT22;30858;51.108;8.068;2022-12-26T00:38:43;10.60;99.90
45096;DHT22;30858;51.108;8.068;2022-12-26T00:41:10;10.60;99.90
45096;DHT22;30858;51.108;8.068;2022-12-26T00:43:41;10.60;99.90
45096;DHT22;30858;51.108;8.068;2022-12-26T00:46:07;10.60;99.90
45096;DHT22;30858;51.108;8.068;2022-12-26T00:48:33;10.70;99.90
45096;DHT22;30858;51.108;8.068;2022-12-26T00:50:59;10.70;99.90
45096;DHT22;30858;51.108;8.068;2022-12-26T00:53:25;10.80;99.90
45096;DHT22;30858;51.108;8.068;2022-12-26T00:55:52;10.80;99.90
45096;DHT22;30858;51.108;8.068;2022-12-26T00:58:18;10.90;99.90
45096;DHT22;30858;51.108;8.068;2022-12-26T01:00:44;11.20;99.90
45096;DHT22;30858;51.108;8.068;2022-12-26T01:03:10;11.30;99.90
45096;DHT22;30858;51.108;8.068;2022-12-26T01:05:45;11.20;99.90
45096;DHT22;30858;51.108;8.068;2022-12-26T01:08:11;11.20;99.90
45096;DHT22;30858;51.108;8.068;2022-12-26T01:10:40;11.10;99.90
45096;DHT22;30858;51.108;8.068;2022-12-26T01:13:06;11.10;99.90
45096;DHT22;30858;51.108;8.068;2022-12-26T01:15:32;11.20;99.90
45096;DHT22;30858;51.108;8.068;2022-12-26T01:17:58;11.20;99.90
45096;DHT22;30858;51.108;8.068;2022-12-26T01:20:27;11.30;99.90
45096;DHT22;30858;51.108;8.068;2022-12-26T01:22:53;11.30;99.90
45096;DHT22;30858;51.108;8.068;2022-12-26T01:25:19;11.40;99.90
45096;DHT22;30858;51.108;8.068;2022-12-26T01:27:45;11.40;99.90
45096;DHT22;30858;51.108;8.068;2022-12-26T01:30:10;11.30;99.90
45096;DHT22;30858;51.108;8.068;2022-12-26T01:32:36;11.20;99.90
45096;DHT22;30858;51.108;8.068;2022-12-26T01:35:02;11.10;99.90
45096;DHT22;30858;51.108;8.068;2022-12-26T01:37:27;11.00;99.90
45096;DHT22;30858;51.108;8.068;2022-12-26T01:39:53;10.90;99.90
45096;DHT22;30858;51.108;8.068;2022-12-26T01:42:20;11.00;99.90
45096;DHT22;30858;51.108;8.068;2022-12-26T01:50:54;11.00;99.90
45096;DHT22;30858;51.108;8.068;2022-12-26T01:56:06;11.10;99.90
45096;DHT22;30858;51.108;8.068;2022-12-26T01:58:36;11.10;99.90
45096;DHT22;30858;51.108;8.068;2022-12-26T02:01:05;11.00;99.90
45096;DHT22;30858;51.108;8.068;2022-12-26T02:03:33;10.90;99.90
45096;DHT22;30858;51.108;8.068;2022-12-26T02:06:18;10.80;99.90
45096;DHT22;30858;51.108;8.068;2022-12-26T02:08:44;10.70;99.90
45096;DHT22;30858;51.108;8.068;2022-12-26T02:13:43;10.80;99.90
45096;DHT22;30858;51.108;8.068;2022-12-26T02:16:12;10.80;99.90
45096;DHT22;30858;51.108;8.068;2022-12-26T02:18:39;10.90;99.90
45096;DHT22;30858;51.108;8.068;2022-12-26T02:32:17;11.00;99.90
45096;DHT22;30858;51.108;8.068;2022-12-26T02:34:58;10.90;99.90
45096;DHT22;30858;51.108;8.068;2022-12-26T02:40:48;11.10;99.90
45096;DHT22;30858;51.108;8.068;2022-12-26T02:43:31;11.10;99.90
45096;DHT22;30858;51.108;8.068;2022-12-26T02:46:12;11.10;99.90
45096;DHT22;30858;51.108;8.068;2022-12-26T02:52:11;11.10;99.90
45096;DHT22;30858;51.108;8.068;2022-12-26T02:55:08;11.10;99.90
45096;DHT22;30858;51.108;8.068;2022-12-26T03:00:54;11.10;99.90
45096;DHT22;30858;51.108;8.068;2022-12-26T03:03:41;11.10;99.90
45096;DHT22;30858;51.108;8.068;2022-12-26T03:06:28;11.00;99.90
45096;DHT22;30858;51.108;8.068;2022-12-26T03:09:27;11.00;99.90
45096;DHT22;30858;51.108;8.068;2022-12-26T03:15:13;11.00;99.90
45096;DHT22;30858;51.108;8.068;2022-12-26T03:17:43;11.00;99.90
45096;DHT22;30858;51.108;8.068;2022-12-26T03:22:56;11.10;99.90
45096;DHT22;30858;51.108;8.068;2022-12-26T03:28:18;11.00;99.90
45096;DHT22;30858;51.108;8.068;2022-12-26T03:30:43;10.90;99.90
45096;DHT22;30858;51.108;8.068;2022-12-26T03:33:16;10.90;99.90
45096;DHT22;30858;51.108;8.068;2022-12-26T03:36:00;10.90;99.90
45096;DHT22;30858;51.108;8.068;2022-12-26T03:41:05;10.90;99.90
45096;DHT22;30858;51.108;8.068;2022-12-26T03:44:04;11.00;99.90
45096;DHT22;30858;51.108;8.068;2022-12-26T03:49:46;11.10;99.90
45096;DHT22;30858;51.108;8.068;2022-12-26T03:52:39;11.00;99.90
45096;DHT22;30858;51.108;8.068;2022-12-26T03:58:45;11.00;99.90
45096;DHT22;30858;51.108;8.068;2022-12-26T04:01:34;10.90;99.90
45096;DHT22;30858;51.108;8.068;2022-12-26T04:04:21;10.90;99.90
45096;DHT22;30858;51.108;8.068;2022-12-26T04:07:13;10.90;99.90
45096;DHT22;30858;51.108;8.068;2022-12-26T04:12:49;10.70;99.90
45096;DHT22;30858;51.108;8.068;2022-12-26T04:19:12;10.70;99.90
45096;DHT22;30858;51.108;8.068;2022-12-26T04:22:08;10.80;99.90
45096;DHT22;30858;51.108;8.068;2022-12-26T04:25:13;10.80;99.90
45096;DHT22;30858;51.108;8.068;2022-12-26T04:27:58;10.70;99.90
45096;DHT22;30858;51.108;8.068;2022-12-26T04:30:50;10.60;99.90
45096;DHT22;30858;51.108;8.068;2022-12-26T04:33:42;10.70;99.90
45096;DHT22;30858;51.108;8.068;2022-12-26T04:36:44;10.70;99.90
45096;DHT22;30858;51.108;8.068;2022-12-26T04:39:31;10.60;99.90
45096;DHT22;30858;51.108;8.068;2022-12-26T04:42:18;10.60;99.90
45096;DHT22;30858;51.108;8.068;2022-12-26T04:45:06;10.60;99.90
45096;DHT22;30858;51.108;8.068;2022-12-26T04:47:33;10.40;99.90
45096;DHT22;30858;51.108;8.068;2022-12-26T04:50:04;10.40;99.90
45096;DHT22;30858;51.108;8.068;2022-12-26T04:52:40;10.40;99.90
45096;DHT22;30858;51.108;8.068;2022-12-26T04:55:30;10.50;99.90
45096;DHT22;30858;51.108;8.068;2022-12-26T04:57:56;10.60;99.90
45096;DHT22;30858;51.108;8.068;2022-12-26T05:00:23;10.70;99.90
45096;DHT22;30858;51.108;8.068;2022-12-26T05:02:50;10.70;99.90
45096;DHT22;30858;51.108;8.068;2022-12-26T05:05:43;10.70;99.90
45096;DHT22;30858;51.108;8.068;2022-12-26T05:08:45;10.70;99.90
45096;DHT22;30858;51.108;8.068;2022-12-26T05:11:33;10.80;99.90
45096;DHT22;30858;51.108;8.068;2022-12-26T05:13:59;10.80;99.90
45096;DHT22;30858;51.108;8.068;2022-12-26T05:16:26;10.70;99.90
45096;DHT22;30858;51.108;8.068;2022-12-26T05:19:16;10.80;99.90
45096;DHT22;30858;51.108;8.068;2022-12-26T05:22:02;10.80;99.90
45096;DHT22;30858;51.108;8.068;2022-12-26T05:24:47;10.80;99.90
45096;DHT22;30858;51.108;8.068;2022-12-26T05:27:38;10.80;99.90
45096;DHT22;30858;51.108;8.068;2022-12-26T05:30:23;10.80;99.90
45096;DHT22;30858;51.108;8.068;2022-12-26T05:32:49;10.80;99.90
45096;DHT22;30858;51.108;8.068;2022-12-26T05:35:34;10.80;99.90
45096;DHT22;30858;51.108;8.068;2022-12-26T05:38:00;10.70;99.90
45096;DHT22;30858;51.108;8.068;2022-12-26T05:40:26;10.70;99.90
45096;DHT22;30858;51.108;8.068;2022-12-26T05:42:52;10.70;99.90
45096;DHT22;30858;51.108;8.068;2022-12-26T05:45:17;10.70;99.90
45096;DHT22;30858;51.108;8.068;2022-12-26T05:47:43;10.70;99.90
45096;DHT22;30858;51.108;8.068;2022-12-26T05:50:08;10.70;99.90
45096;DHT22;30858;51.108;8.068;2022-12-26T05:52:34;10.60;99.90
45096;DHT22;30858;51.108;8.068;2022-12-26T05:54:59;10.60;99.90
45096;DHT22;30858;51.108;8.068;2022-12-26T05:57:25;10.60;99.90
45096;DHT22;30858;51.108;8.068;2022-12-26T05:59:51;10.60;99.90
45096;DHT22;30858;51.108;8.068;2022-12-26T06:02:16;10.60;99.90
45096;DHT22;30858;51.108;8.068;2022-12-26T06:04:42;10.50;99.90
45096;DHT22;30858;51.108;8.068;2022-12-26T06:07:07;10.50;99.90
45096;DHT22;30858;51.108;8.068;2022-12-26T06:09:33;10.50;99.90
45096;DHT22;30858;51.108;8.068;2022-12-26T06:11:58;10.40;99.90
45096;DHT22;30858;51.108;8.068;2022-12-26T06:14:24;10.40;99.90
45096;DHT22;30858;51.108;8.068;2022-12-26T06:16:49;10.30;99.90
45096;DHT22;30858;51.108;8.068;2022-12-26T06:19:15;10.20;99.90
45096;DHT22;30858;51.108;8.068;2022-12-26T06:21:41;10.20;99.90
45096;DHT22;30858;51.108;8.068;2022-12-26T06:24:06;10.00;99.90
45096;DHT22;30858;51.108;8.068;2022-12-26T06:26:32;10.10;99.90
45096;DHT22;30858;51.108;8.068;2022-12-26T06:28:57;10.10;99.90
45096;DHT22;30858;51.108;8.068;2022-12-26T06:31:24;10.00;99.90
45096;DHT22;30858;51.108;8.068;2022-12-26T06:33:53;10.00;99.90
45096;DHT22;30858;51.108;8.068;2022-12-26T06:36:21;10.00;99.90
45096;DHT22;30858;51.108;8.068;2022-12-26T06:38:48;10.00;99.90
45096;DHT22;30858;51.108;8.068;2022-12-26T06:41:16;10.10;99.90
45096;DHT22;30858;51.108;8.068;2022-12-26T06:43:42;10.00;99.90
45096;DHT22;30858;51.108;8.068;2022-12-26T06:46:15;10.00;99.90
45096;DHT22;30858;51.108;8.068;2022-12-26T06:48:41;10.00;99.90
45096;DHT22;30858;51.108;8.068;2022-12-26T06:51:10;10.00;99.90
45096;DHT22;30858;51.108;8.068;2022-12-26T06:53:35;10.00;99.90
45096;DHT22;30858;51.108;8.068;2022-12-26T06:56:10;10.00;99.90
45096;DHT22;30858;51.108;8.068;2022-12-26T06:58:36;10.00;99.90
45096;DHT22;30858;51.108;8.068;2022-12-26T07:01:10;10.00;99.90
45096;DHT22;30858;51.108;8.068;2022-12-26T07:03:37;10.00;99.90
45096;DHT22;30858;51.108;8.068;2022-12-26T07:06:09;9.90;99.90
45096;DHT22;30858;51.108;8.068;2022-12-26T07:08:36;9.90;99.90
45096;DHT22;30858;51.108;8.068;2022-12-26T07:11:01;9.90;99.90
45096;DHT22;30858;51.108;8.068;2022-12-26T07:13:27;9.80;99.90
45096;DHT22;30858;51.108;8.068;2022-12-26T07:15:53;9.80;99.90
45096;DHT22;30858;51.108;8.068;2022-12-26T07:18:18;9.80;99.90
45096;DHT22;30858;51.108;8.068;2022-12-26T07:20:44;9.70;99.90
45096;DHT22;30858;51.108;8.068;2022-12-26T07:23:10;9.80;99.90
45096;DHT22;30858;51.108;8.068;2022-12-26T07:25:38;9.70;99.90
45096;DHT22;30858;51.108;8.068;2022-12-26T07:28:04;9.60;99.90
45096;DHT22;30858;51.108;8.068;2022-12-26T07:30:29;9.50;99.90
45096;DHT22;30858;51.108;8.068;2022-12-26T07:32:55;9.50;99.90
45096;DHT22;30858;51.108;8.068;2022-12-26T07:35:20;9.50;99.90
45096;DHT22;30858;51.108;8.068;2022-12-26T07:37:46;9.40;99.90
45096;DHT22;30858;51.108;8.068;2022-12-26T07:40:11;9.40;99.90
45096;DHT22;30858;51.108;8.068;2022-12-26T07:42:37;9.40;99.90
45096;DHT22;30858;51.108;8.068;2022-12-26T07:45:03;9.30;99.90
45096;DHT22;30858;51.108;8.068;2022-12-26T07:47:28;9.20;99.90
45096;DHT22;30858;51.108;8.068;2022-12-26T07:49:54;9.10;99.90
45096;DHT22;30858;51.108;8.068;2022-12-26T07:52:20;9.10;99.90
45096;DHT22;30858;51.108;8.068;2022-12-26T07:54:45;9.10;99.90
45096;DHT22;30858;51.108;8.068;2022-12-26T07:57:11;9.10;99.90
45096;DHT22;30858;51.108;8.068;2022-12-26T07:59:37;9.20;99.90
45096;DHT22;30858;51.108;8.068;2022-12-26T08:02:02;9.10;99.90
45096;DHT22;30858;51.108;8.068;2022-12-26T08:04:31;9.10;99.90
45096;DHT22;30858;51.108;8.068;2022-12-26T08:06:57;9.10;99.90
45096;DHT22;30858;51.108;8.068;2022-12-26T08:09:23;9.10;99.90
45096;DHT22;30858;51.108;8.068;2022-12-26T08:11:48;9.20;99.90
45096;DHT22;30858;51.108;8.068;2022-12-26T08:14:14;9.20;99.90
45096;DHT22;30858;51.108;8.068;2022-12-26T08:16:43;9.20;99.90
45096;DHT22;30858;51.108;8.068;2022-12-26T08:19:10;9.20;99.90
45096;DHT22;30858;51.108;8.068;2022-12-26T08:21:36;9.30;99.90
45096;DHT22;30858;51.108;8.068;2022-12-26T08:24:01;9.30;99.90
45096;DHT22;30858;51.108;8.068;2022-12-26T08:26:27;9.30;99.90
45096;DHT22;30858;51.108;8.068;2022-12-26T08:28:54;9.40;99.90
45096;DHT22;30858;51.108;8.068;2022-12-26T08:31:20;9.40;99.90
45096;DHT22;30858;51.108;8.068;2022-12-26T08:33:46;9.40;99.90
45096;DHT22;30858;51.108;8.068;2022-12-26T08:36:12;9.30;99.90
45096;DHT22;30858;51.108;8.068;2022-12-26T08:38:39;9.30;99.90
45096;DHT22;30858;51.108;8.068;2022-12-26T08:41:05;9.30;99.90
45096;DHT22;30858;51.108;8.068;2022-12-26T08:43:31;9.40;99.90
45096;DHT22;30858;51.108;8.068;2022-12-26T08:45:58;9.30;99.90
45096;DHT22;30858;51.108;8.068;2022-12-26T08:48:24;9.20;99.90
45096;DHT22;30858;51.108;8.068;2022-12-26T08:50:58;9.10;99.90
45096;DHT22;30858;51.108;8.068;2022-12-26T08:53:24;9.10;99.90
45096;DHT22;30858;51.108;8.068;2022-12-26T08:55:51;9.10;99.90
45096;DHT22;30858;51.108;8.068;2022-12-26T08:58:16;9.20;99.90
45096;DHT22;30858;51.108;8.068;2022-12-26T09:00:42;9.20;99.90
45096;DHT22;30858;51.108;8.068;2022-12-26T09:03:08;9.30;99.90
45096;DHT22;30858;51.108;8.068;2022-12-26T09:05:33;9.20;99.90
45096;DHT22;30858;51.108;8.068;2022-12-26T09:07:59;9.30;99.90
45096;DHT22;30858;51.108;8.068;2022-12-26T09:10:24;9.30;99.90
45096;DHT22;30858;51.108;8.068;2022-12-26T09:12:50;9.40;99.90
45096;DHT22;30858;51.108;8.068;2022-12-26T09:15:16;9.40;99.90
45096;DHT22;30858;51.108;8.068;2022-12-26T09:17:41;9.50;99.90
45096;DHT22;30858;51.108;8.068;2022-12-26T09:20:07;9.50;99.90
45096;DHT22;30858;51.108;8.068;2022-12-26T09:22:33;9.60;99.90
45096;DHT22;30858;51.108;8.068;2022-12-26T09:25:22;9.70;99.90
45096;DHT22;30858;51.108;8.068;2022-12-26T09:27:48;9.70;99.90
45096;DHT22;30858;51.108;8.068;2022-12-26T09:30:15;9.80;99.90
45096;DHT22;30858;51.108;8.068;2022-12-26T09:32:40;9.80;99.90
45096;DHT22;30858;51.108;8.068;2022-12-26T09:35:06;9.80;99.90
45096;DHT22;30858;51.108;8.068;2022-12-26T09:37:32;9.80;99.90
45096;DHT22;30858;51.108;8.068;2022-12-26T09:39:58;9.80;99.90
45096;DHT22;30858;51.108;8.068;2022-12-26T09:42:39;9.90;99.90
45096;DHT22;30858;51.108;8.068;2022-12-26T09:45:17;9.90;99.90
45096;DHT22;30858;51.108;8.068;2022-12-26T09:47:50;10.00;99.90
45096;DHT22;30858;51.108;8.068;2022-12-26T09:50:26;10.00;99.90
45096;DHT22;30858;51.108;8.068;2022-12-26T09:52:55;10.00;99.90
45096;DHT22;30858;51.108;8.068;2022-12-26T09:55:33;10.00;99.90
45096;DHT22;30858;51.108;8.068;2022-12-26T09:58:34;10.00;99.90
45096;DHT22;30858;51.108;8.068;2022-12-26T10:03:38;10.10;99.90
45096;DHT22;30858;51.108;8.068;2022-12-26T10:14:14;10.20;99.90
45096;DHT22;30858;51.108;8.068;2022-12-26T10:16:49;10.20;99.90
45096;DHT22;30858;51.108;8.068;2022-12-26T10:19:35;10.30;99.90
45096;DHT22;30858;51.108;8.068;2022-12-26T10:22:22;10.30;99.90
45096;DHT22;30858;51.108;8.068;2022-12-26T10:24:55;10.40;99.90
45096;DHT22;30858;51.108;8.068;2022-12-26T10:27:23;10.40;99.90
45096;DHT22;30858;51.108;8.068;2022-12-26T10:30:01;10.50;99.90
45096;DHT22;30858;51.108;8.068;2022-12-26T10:32:32;10.50;99.90
45096;DHT22;30858;51.108;8.068;2022-12-26T10:35:26;10.50;99.90
45096;DHT22;30858;51.108;8.068;2022-12-26T10:37:54;10.60;99.90
45096;DHT22;30858;51.108;8.068;2022-12-26T10:40:26;10.50;99.90
45096;DHT22;30858;51.108;8.068;2022-12-26T10:42:58;10.60;99.90
45096;DHT22;30858;51.108;8.068;2022-12-26T10:45:46;10.50;99.90
45096;DHT22;30858;51.108;8.068;2022-12-26T10:48:15;10.40;99.90
45096;DHT22;30858;51.108;8.068;2022-12-26T10:50:48;10.50;99.90
45096;DHT22;30858;51.108;8.068;2022-12-26T10:53:14;10.50;99.90
45096;DHT22;30858;51.108;8.068;2022-12-26T10:55:41;10.50;99.90
45096;DHT22;30858;51.108;8.068;2022-12-26T10:58:24;10.30;99.90
45096;DHT22;30858;51.108;8.068;2022-12-26T11:00:52;10.40;99.90
45096;DHT22;30858;51.108;8.068;2022-12-26T11:03:19;10.40;99.90
45096;DHT22;30858;51.108;8.068;2022-12-26T11:08:15;10.40;99.90
45096;DHT22;30858;51.108;8.068;2022-12-26T11:13:36;10.40;99.90
45096;DHT22;30858;51.108;8.068;2022-12-26T11:16:03;10.50;99.90
45096;DHT22;30858;51.108;8.068;2022-12-26T11:18:49;10.50;99.90
45096;DHT22;30858;51.108;8.068;2022-12-26T11:21:19;10.50;99.90
45096;DHT22;30858;51.108;8.068;2022-12-26T11:23:50;10.50;99.90
45096;DHT22;30858;51.108;8.068;2022-12-26T11:26:26;10.50;99.90
45096;DHT22;30858;51.108;8.068;2022-12-26T11:31:40;10.50;99.90
45096;DHT22;30858;51.108;8.068;2022-12-26T11:34:10;10.60;99.90
45096;DHT22;30858;51.108;8.068;2022-12-26T11:36:45;10.50;99.90
45096;DHT22;30858;51.108;8.068;2022-12-26T11:39:37;10.50;99.90
45096;DHT22;30858;51.108;8.068;2022-12-26T11:42:10;10.60;99.90
45096;DHT22;30858;51.108;8.068;2022-12-26T11:44:40;10.60;99.90
45096;DHT22;30858;51.108;8.068;2022-12-26T11:47:09;10.50;99.90
45096;DHT22;30858;51.108;8.068;2022-12-26T11:49:59;10.50;99.90
45096;DHT22;30858;51.108;8.068;2022-12-26T11:54:58;10.50;99.90
45096;DHT22;30858;51.108;8.068;2022-12-26T11:57:31;10.50;99.90
45096;DHT22;30858;51.108;8.068;2022-12-26T12:00:18;10.60;99.90
45096;DHT22;30858;51.108;8.068;2022-12-26T12:02:44;10.60;99.90
45096;DHT22;30858;51.108;8.068;2022-12-26T12:05:35;10.60;99.90
45096;DHT22;30858;51.108;8.068;2022-12-26T12:19:57;10.40;99.90
45096;DHT22;30858;51.108;8.068;2022-12-26T12:25:26;10.30;99.90
45096;DHT22;30858;51.108;8.068;2022-12-26T12:30:36;10.30;99.90
45096;DHT22;30858;51.108;8.068;2022-12-26T12:33:20;10.30;99.90
45096;DHT22;30858;51.108;8.068;2022-12-26T12:36:11;10.20;99.90
45096;DHT22;30858;51.108;8.068;2022-12-26T12:44:21;10.30;99.90
45096;DHT22;30858;51.108;8.068;2022-12-26T13:00:20;10.70;99.90
45096;DHT22;30858;51.108;8.068;2022-12-26T13:03:01;10.70;99.90
45096;DHT22;30858;51.108;8.068;2022-12-26T13:05:52;10.70;99.90
45096;DHT22;30858;51.108;8.068;2022-12-26T13:08:35;10.70;99.90
45096;DHT22;30858;51.108;8.068;2022-12-26T13:11:16;10.70;99.90
45096;DHT22;30858;51.108;8.068;2022-12-26T13:13:53;10.80;99.90
45096;DHT22;30858;51.108;8.068;2022-12-26T13:16:28;10.80;99.90
45096;DHT22;30858;51.108;8.068;2022-12-26T13:19:18;10.70;99.90
45096;DHT22;30858;51.108;8.068;2022-12-26T13:21:45;10.40;99.90
45096;DHT22;30858;51.108;8.068;2022-12-26T13:24:42;10.30;99.90
45096;DHT22;30858;51.108;8.068;2022-12-26T13:27:23;10.00;99.90
45096;DHT22;30858;51.108;8.068;2022-12-26T13:29:50;9.80;99.90
45096;DHT22;30858;51.108;8.068;2022-12-26T13:34:48;9.60;99.90
45096;DHT22;30858;51.108;8.068;2022-12-26T13:50:55;9.40;99.90
45096;DHT22;30858;51.108;8.068;2022-12-26T13:53:30;9.50;99.90
45096;DHT22;30858;51.108;8.068;2022-12-26T13:58:52;9.50;99.90
45096;DHT22;30858;51.108;8.068;2022-12-26T14:04:36;9.40;99.90
45096;DHT22;30858;51.108;8.068;2022-12-26T14:24:09;9.20;99.90
45096;DHT22;30858;51.108;8.068;2022-12-26T14:32:41;8.50;99.90
45096;DHT22;30858;51.108;8.068;2022-12-26T14:35:27;8.10;99.90
45096;DHT22;30858;51.108;8.068;2022-12-26T14:43:39;7.90;99.90
45096;DHT22;30858;51.108;8.068;2022-12-26T14:49:16;7.80;99.90
45096;DHT22;30858;51.108;8.068;2022-12-26T14:51:42;7.90;99.90
45096;DHT22;30858;51.108;8.068;2022-12-26T14:54:34;7.90;99.90
45096;DHT22;30858;51.108;8.068;2022-12-26T14:57:00;7.80;99.90
45096;DHT22;30858;51.108;8.068;2022-12-26T14:59:32;7.70;99.90
45096;DHT22;30858;51.108;8.068;2022-12-26T15:02:29;7.70;99.90
45096;DHT22;30858;51.108;8.068;2022-12-26T15:05:10;7.60;99.90
45096;DHT22;30858;51.108;8.068;2022-12-26T15:10:58;7.70;99.90
45096;DHT22;30858;51.108;8.068;2022-12-26T15:16:39;7.80;99.90
45096;DHT22;30858;51.108;8.068;2022-12-26T15:33:39;7.30;99.90
45096;DHT22;30858;51.108;8.068;2022-12-26T15:36:44;7.30;99.90
45096;DHT22;30858;51.108;8.068;2022-12-26T15:44:30;7.20;99.90
45096;DHT22;30858;51.108;8.068;2022-12-26T15:47:28;7.20;99.90
45096;DHT22;30858;51.108;8.068;2022-12-26T15:50:06;7.10;99.90
45096;DHT22;30858;51.108;8.068;2022-12-26T15:52:59;7.10;99.90
45096;DHT22;30858;51.108;8.068;2022-12-26T15:58:39;7.10;99.90
45096;DHT22;30858;51.108;8.068;2022-12-26T16:01:09;7.20;99.90
45096;DHT22;30858;51.108;8.068;2022-12-26T16:03:36;7.20;99.90
45096;DHT22;30858;51.108;8.068;2022-12-26T16:12:30;7.10;99.90
45096;DHT22;30858;51.108;8.068;2022-12-26T16:15:13;7.20;99.90
45096;DHT22;30858;51.108;8.068;2022-12-26T16:17:40;7.10;99.90
45096;DHT22;30858;51.108;8.068;2022-12-26T16:23:29;7.00;99.90
45096;DHT22;30858;51.108;8.068;2022-12-26T16:25:57;7.00;99.90
45096;DHT22;30858;51.108;8.068;2022-12-26T16:28:28;7.00;99.90
45096;DHT22;30858;51.108;8.068;2022-12-26T16:30:59;7.00;99.90
45096;DHT22;30858;51.108;8.068;2022-12-26T16:33:29;7.00;99.90
45096;DHT22;30858;51.108;8.068;2022-12-26T16:35:55;6.90;99.90
45096;DHT22;30858;51.108;8.068;2022-12-26T16:38:25;7.00;99.90
45096;DHT22;30858;51.108;8.068;2022-12-26T16:40:51;7.00;99.90
45096;DHT22;30858;51.108;8.068;2022-12-26T16:45:45;7.10;99.90
45096;DHT22;30858;51.108;8.068;2022-12-26T16:48:15;7.00;99.90
45096;DHT22;30858;51.108;8.068;2022-12-26T16:50:50;7.10;99.90
45096;DHT22;30858;51.108;8.068;2022-12-26T16:53:20;7.00;99.90
45096;DHT22;30858;51.108;8.068;2022-12-26T16:55:50;6.90;99.90
45096;DHT22;30858;51.108;8.068;2022-12-26T16:58:34;6.90;99.90
45096;DHT22;30858;51.108;8.068;2022-12-26T17:01:07;7.00;99.90
45096;DHT22;30858;51.108;8.068;2022-12-26T17:06:14;7.00;99.90
45096;DHT22;30858;51.108;8.068;2022-12-26T17:08:42;6.90;99.90
45096;DHT22;30858;51.108;8.068;2022-12-26T17:11:10;6.90;99.90
45096;DHT22;30858;51.108;8.068;2022-12-26T17:13:36;6.70;99.90
45096;DHT22;30858;51.108;8.068;2022-12-26T17:16:06;6.70;99.90
45096;DHT22;30858;51.108;8.068;2022-12-26T17:18:52;6.70;99.90
45096;DHT22;30858;51.108;8.068;2022-12-26T17:21:30;6.70;99.90
45096;DHT22;30858;51.108;8.068;2022-12-26T17:26:38;6.60;99.90
45096;DHT22;30858;51.108;8.068;2022-12-26T17:29:04;6.70;99.90
45096;DHT22;30858;51.108;8.068;2022-12-26T17:31:37;6.60;99.90
45096;DHT22;30858;51.108;8.068;2022-12-26T17:34:13;6.60;99.90
45096;DHT22;30858;51.108;8.068;2022-12-26T17:36:40;6.60;99.90
45096;DHT22;30858;51.108;8.068;2022-12-26T17:39:11;6.60;99.90
45096;DHT22;30858;51.108;8.068;2022-12-26T17:41:50;6.60;99.90
45096;DHT22;30858;51.108;8.068;2022-12-26T17:44:43;6.50;99.90
45096;DHT22;30858;51.108;8.068;2022-12-26T17:47:19;6.50;99.90
45096;DHT22;30858;51.108;8.068;2022-12-26T17:49:46;6.40;99.90
45096;DHT22;30858;51.108;8.068;2022-12-26T17:52:13;6.30;99.90
45096;DHT22;30858;51.108;8.068;2022-12-26T17:54:40;6.30;99.90
45096;DHT22;30858;51.108;8.068;2022-12-26T17:57:29;6.30;99.90
45096;DHT22;30858;51.108;8.068;2022-12-26T17:59:54;6.20;99.90
45096;DHT22;30858;51.108;8.068;2022-12-26T18:02:20;6.20;99.90
45096;DHT22;30858;51.108;8.068;2022-12-26T18:04:47;6.10;99.90
45096;DHT22;30858;51.108;8.068;2022-12-26T18:07:21;6.00;99.90
45096;DHT22;30858;51.108;8.068;2022-12-26T18:09:49;6.00;99.90
45096;DHT22;30858;51.108;8.068;2022-12-26T18:12:16;5.90;99.90
45096;DHT22;30858;51.108;8.068;2022-12-26T18:14:42;5.90;99.90
45096;DHT22;30858;51.108;8.068;2022-12-26T18:17:11;5.80;99.90
45096;DHT22;30858;51.108;8.068;2022-12-26T18:19:37;5.80;99.90
45096;DHT22;30858;51.108;8.068;2022-12-26T18:22:10;5.70;99.90
45096;DHT22;30858;51.108;8.068;2022-12-26T18:24:37;5.70;99.90
45096;DHT22;30858;51.108;8.068;2022-12-26T18:27:02;5.70;99.90
45096;DHT22;30858;51.108;8.068;2022-12-26T18:29:28;5.60;99.90
45096;DHT22;30858;51.108;8.068;2022-12-26T18:31:53;5.60;99.90
45096;DHT22;30858;51.108;8.068;2022-12-26T18:34:19;5.60;99.90
45096;DHT22;30858;51.108;8.068;2022-12-26T18:36:46;5.60;99.90
45096;DHT22;30858;51.108;8.068;2022-12-26T18:39:15;5.50;99.90
45096;DHT22;30858;51.108;8.068;2022-12-26T18:41:41;5.40;99.90
45096;DHT22;30858;51.108;8.068;2022-12-26T18:44:07;5.30;99.90
45096;DHT22;30858;51.108;8.068;2022-12-26T18:46:33;5.10;99.90
45096;DHT22;30858;51.108;8.068;2022-12-26T18:48:58;5.00;99.90
45096;DHT22;30858;51.108;8.068;2022-12-26T18:51:25;5.00;99.90
45096;DHT22;30858;51.108;8.068;2022-12-26T18:53:52;5.00;99.90
45096;DHT22;30858;51.108;8.068;2022-12-26T18:56:20;5.00;99.90
45096;DHT22;30858;51.108;8.068;2022-12-26T18:58:47;4.90;99.90
45096;DHT22;30858;51.108;8.068;2022-12-26T19:01:15;4.80;99.90
45096;DHT22;30858;51.108;8.068;2022-12-26T19:03:41;4.80;99.90
45096;DHT22;30858;51.108;8.068;2022-12-26T19:06:21;4.70;99.90
45096;DHT22;30858;51.108;8.068;2022-12-26T19:08:47;4.60;99.90
45096;DHT22;30858;51.108;8.068;2022-12-26T19:11:13;4.60;99.90
45096;DHT22;30858;51.108;8.068;2022-12-26T19:13:39;4.60;99.90
45096;DHT22;30858;51.108;8.068;2022-12-26T19:16:05;4.60;99.90
45096;DHT22;30858;51.108;8.068;2022-12-26T19:18:31;4.50;99.90
45096;DHT22;30858;51.108;8.068;2022-12-26T19:20:56;4.50;99.90
45096;DHT22;30858;51.108;8.068;2022-12-26T19:23:22;4.40;99.90
45096;DHT22;30858;51.108;8.068;2022-12-26T19:25:47;4.30;99.90
45096;DHT22;30858;51.108;8.068;2022-12-26T19:28:13;4.30;99.90
45096;DHT22;30858;51.108;8.068;2022-12-26T19:30:38;4.20;99.90
45096;DHT22;30858;51.108;8.068;2022-12-26T19:33:04;4.20;99.90
45096;DHT22;30858;51.108;8.068;2022-12-26T19:35:30;4.00;99.90
45096;DHT22;30858;51.108;8.068;2022-12-26T19:37:56;4.00;99.90
45096;DHT22;30858;51.108;8.068;2022-12-26T19:40:22;4.00;99.90
45096;DHT22;30858;51.108;8.068;2022-12-26T19:42:47;3.80;99.90